createdAt,value
2023-04-19T00:02:06.846Z,11.84
2023-04-19T00:04:34.105Z,11.89
2023-04-19T00:07:00.937Z,11.89
2023-04-19T00:09:27.607Z,11.89
2023-04-19T00:11:54.346Z,11.88
2023-04-19T00:14:21.130Z,11.87
2023-04-19T00:16:47.969Z,11.85
2023-04-19T00:19:14.742Z,11.84
2023-04-19T00:21:41.475Z,11.84
2023-04-19T00:24:08.692Z,11.84
2023-04-19T00:26:35.418Z,11.80
2023-04-19T00:29:02.323Z,11.78
2023-04-19T00:31:29.121Z,11.75
2023-04-19T00:33:57.322Z,11.72
2023-04-19T00:36:27.415Z,11.69
2023-04-19T00:38:54.133Z,11.63
2023-04-19T00:41:21.559Z,11.67
2023-04-19T00:43:48.248Z,11.70
2023-04-19T00:46:16.135Z,11.71
2023-04-19T00:48:43.137Z,11.64
2023-04-19T00:51:12.089Z,11.62
2023-04-19T00:53:39.060Z,11.62
2023-04-19T00:56:06.075Z,11.62
2023-04-19T00:58:33.010Z,11.59
2023-04-19T01:01:00.562Z,11.60
2023-04-19T01:03:29.768Z,11.58
2023-04-19T01:05:57.327Z,11.59
2023-04-19T01:08:24.386Z,11.57
2023-04-19T01:10:53.965Z,11.58
2023-04-19T01:13:20.674Z,11.56
2023-04-19T01:15:48.487Z,11.54
2023-04-19T01:18:15.260Z,11.53
2023-04-19T01:20:42.860Z,11.53
2023-04-19T01:23:11.780Z,11.49
2023-04-19T01:25:39.245Z,11.48
2023-04-19T01:28:06.391Z,11.40
2023-04-19T01:30:33.130Z,11.39
2023-04-19T01:32:59.950Z,11.40
2023-04-19T01:35:26.746Z,11.40
2023-04-19T01:37:55.708Z,11.38
2023-04-19T01:40:26.283Z,11.36
2023-04-19T01:42:53.489Z,11.40
2023-04-19T01:45:20.339Z,11.40
2023-04-19T01:47:50.586Z,11.43
2023-04-19T01:50:17.387Z,11.42
2023-04-19T01:52:44.132Z,11.40
2023-04-19T01:55:10.872Z,11.40
2023-04-19T01:57:37.549Z,11.36
2023-04-19T02:00:04.711Z,11.33
2023-04-19T02:02:41.419Z,11.29
2023-04-19T02:05:08.891Z,11.24
2023-04-19T02:07:35.765Z,11.29
2023-04-19T02:10:02.472Z,11.28
2023-04-19T02:12:31.086Z,11.25
2023-04-19T02:14:58.308Z,11.18
2023-04-19T02:17:30.611Z,11.22
2023-04-19T02:19:59.499Z,11.19
2023-04-19T02:22:27.108Z,11.21
2023-04-19T02:24:54.322Z,11.21
2023-04-19T02:27:27.318Z,11.15
2023-04-19T02:29:54.682Z,11.13
2023-04-19T02:32:21.462Z,11.14
2023-04-19T02:34:48.185Z,11.11
2023-04-19T02:37:14.910Z,11.14
2023-04-19T02:39:42.875Z,11.16
2023-04-19T02:42:09.619Z,11.21
2023-04-19T02:44:36.353Z,11.21
2023-04-19T02:47:03.080Z,11.23
2023-04-19T02:49:33.311Z,11.24
2023-04-19T02:52:01.002Z,11.24
2023-04-19T02:54:27.755Z,11.24
2023-04-19T02:56:54.520Z,11.24
2023-04-19T02:59:21.864Z,11.19
2023-04-19T03:01:48.826Z,11.17
2023-04-19T03:04:17.318Z,11.19
2023-04-19T03:06:44.612Z,11.16
2023-04-19T03:09:12.188Z,11.19
2023-04-19T03:11:39.162Z,11.21
2023-04-19T03:14:06.144Z,11.17
2023-04-19T03:16:33.853Z,11.15
2023-04-19T03:19:01.007Z,11.15
2023-04-19T03:21:32.640Z,11.16
2023-04-19T03:24:00.056Z,11.14
2023-04-19T03:26:27.183Z,11.07
2023-04-19T03:28:56.378Z,11.07
2023-04-19T03:31:23.163Z,11.04
2023-04-19T03:33:51.455Z,11.01
2023-04-19T03:36:20.121Z,10.92
2023-04-19T03:38:47.402Z,10.83
2023-04-19T03:41:23.560Z,10.69
2023-04-19T03:44:13.308Z,10.65
2023-04-19T03:46:43.436Z,10.57
2023-04-19T03:49:10.422Z,10.51
2023-04-19T03:51:37.882Z,10.41
2023-04-19T03:54:04.676Z,10.41
2023-04-19T03:56:32.684Z,10.34
2023-04-19T03:58:59.602Z,10.32
2023-04-19T04:01:27.994Z,10.26
2023-04-19T04:03:55.990Z,10.28
2023-04-19T04:06:23.095Z,10.27
2023-04-19T04:08:50.177Z,10.28
2023-04-19T04:11:17.064Z,10.31
2023-04-19T04:13:46.855Z,10.30
2023-04-19T04:16:18.573Z,10.25
2023-04-19T04:18:45.576Z,10.21
2023-04-19T04:21:14.674Z,10.18
2023-04-19T04:23:43.799Z,10.14
2023-04-19T04:26:16.823Z,10.09
2023-04-19T04:29:10.037Z,10.02
2023-04-19T04:31:39.637Z,9.99
2023-04-19T04:34:06.780Z,9.97
2023-04-19T04:36:37.811Z,9.97
2023-04-19T04:39:06.652Z,9.94
2023-04-19T04:41:33.642Z,9.97
2023-04-19T04:46:31.572Z,9.97
2023-04-19T04:48:58.431Z,9.95
2023-04-19T04:51:25.316Z,9.98
2023-04-19T04:53:53.387Z,9.95
2023-04-19T04:56:20.593Z,10.02
2023-04-19T04:58:47.434Z,9.98
2023-04-19T05:01:22.980Z,10.06
2023-04-19T05:03:50.755Z,10.01
2023-04-19T05:06:19.313Z,10.05
2023-04-19T05:08:46.153Z,10.02
2023-04-19T05:11:21.719Z,10.05
2023-04-19T05:13:48.558Z,10.04
2023-04-19T05:16:15.412Z,10.05
2023-04-19T05:18:44.952Z,10.09
2023-04-19T05:21:11.761Z,10.13
2023-04-19T05:23:39.689Z,10.14
2023-04-19T05:26:06.635Z,10.15
2023-04-19T05:28:33.359Z,10.11
2023-04-19T05:31:09.414Z,10.14
2023-04-19T05:33:44.598Z,10.21
2023-04-19T05:36:11.608Z,10.21
2023-04-19T05:38:38.382Z,10.31
2023-04-19T05:41:06.550Z,10.31
2023-04-19T05:43:33.257Z,10.39
2023-04-19T05:46:00.435Z,10.49
2023-04-19T05:48:27.317Z,10.54
2023-04-19T05:50:55.276Z,10.58
2023-04-19T05:53:57.179Z,10.53
2023-04-19T05:56:25.072Z,10.65
2023-04-19T05:58:51.830Z,10.74
2023-04-19T06:01:18.691Z,10.74
2023-04-19T06:03:45.752Z,10.69
2023-04-19T06:06:12.641Z,10.85
2023-04-19T06:08:39.391Z,10.87
2023-04-19T06:11:15.715Z,10.96
2023-04-19T06:13:51.321Z,11.06
2023-04-19T06:16:18.868Z,11.16
2023-04-19T06:18:45.659Z,11.21
2023-04-19T06:21:12.367Z,11.33
2023-04-19T06:23:39.116Z,11.34
2023-04-19T06:26:05.998Z,11.30
2023-04-19T06:28:32.720Z,11.34
2023-04-19T06:30:59.566Z,11.35
2023-04-19T06:33:26.395Z,11.45
2023-04-19T06:35:53.224Z,11.54
2023-04-19T06:38:19.930Z,11.64
2023-04-19T06:40:46.649Z,11.69
2023-04-19T06:43:13.513Z,11.72
2023-04-19T06:45:40.270Z,11.72
2023-04-19T06:48:07.036Z,11.77
2023-04-19T06:50:33.813Z,11.63
2023-04-19T06:53:01.184Z,11.65
2023-04-19T06:55:29.107Z,11.68
2023-04-19T06:57:55.816Z,11.78
2023-04-19T07:00:23.149Z,11.97
2023-04-19T07:02:51.127Z,12.03
2023-04-19T07:05:18.408Z,12.15
2023-04-19T07:07:45.111Z,12.23
2023-04-19T07:10:13.040Z,12.27
2023-04-19T07:12:39.839Z,12.35
2023-04-19T07:15:07.010Z,12.28
2023-04-19T07:17:36.140Z,12.27
2023-04-19T07:20:04.497Z,12.44
2023-04-19T07:22:31.373Z,12.65
2023-04-19T07:24:58.718Z,12.81
2023-04-19T07:27:25.878Z,13.05
2023-04-19T07:29:53.401Z,13.16
2023-04-19T07:32:21.119Z,13.25
2023-04-19T07:34:47.926Z,13.26
2023-04-19T07:37:14.932Z,13.26
2023-04-19T07:39:41.824Z,13.09
2023-04-19T07:42:08.546Z,13.13
2023-04-19T07:44:35.421Z,13.26
2023-04-19T07:47:02.165Z,13.17
2023-04-19T07:49:33.996Z,13.20
2023-04-19T07:52:04.243Z,13.25
2023-04-19T07:54:31.546Z,13.32
2023-04-19T07:56:59.216Z,13.34
2023-04-19T07:59:26.037Z,13.43
2023-04-19T08:01:52.831Z,13.46
2023-04-19T08:04:21.081Z,13.75
2023-04-19T08:06:48.213Z,13.92
2023-04-19T08:09:15.068Z,14.20
2023-04-19T08:11:43.270Z,14.13
2023-04-19T08:14:18.580Z,14.24
2023-04-19T08:17:21.936Z,14.25
2023-04-19T08:19:43.531Z,14.35
2023-04-19T08:22:10.788Z,14.48
2023-04-19T08:24:37.546Z,14.59
2023-04-19T08:27:04.288Z,14.54
2023-04-19T08:29:31.321Z,14.55
2023-04-19T08:31:58.172Z,14.62
2023-04-19T08:34:25.040Z,14.66
2023-04-19T08:37:03.262Z,14.65
2023-04-19T08:39:33.889Z,14.66
2023-04-19T08:42:12.647Z,14.45
2023-04-19T08:45:09.479Z,14.45
2023-04-19T08:47:51.973Z,14.37
2023-04-19T08:50:33.321Z,14.42
2023-04-19T08:53:16.544Z,14.45
2023-04-19T08:56:08.597Z,14.38
2023-04-19T08:58:57.106Z,14.47
2023-04-19T09:01:34.669Z,14.21
2023-04-19T09:04:26.188Z,13.99
2023-04-19T09:06:52.882Z,13.82
2023-04-19T09:11:51.820Z,13.57
2023-04-19T09:14:20.918Z,13.61
2023-04-19T09:16:48.122Z,13.93
2023-04-19T09:19:24.285Z,14.01
2023-04-19T09:21:54.770Z,14.10
2023-04-19T09:25:04.448Z,14.33
2023-04-19T09:27:37.357Z,14.16
2023-04-19T09:30:05.115Z,14.42
2023-04-19T09:32:47.119Z,14.64
2023-04-19T09:35:14.424Z,15.00
2023-04-19T09:40:24.909Z,15.45
2023-04-19T09:48:10.558Z,16.10
2023-04-19T09:50:58.611Z,16.35
2023-04-19T09:53:28.960Z,16.51
2023-04-19T09:56:01.671Z,16.56
2023-04-19T09:58:41.566Z,16.59
2023-04-19T10:01:16.173Z,16.39
2023-04-19T10:03:49.446Z,15.86
2023-04-19T10:08:51.189Z,15.62
2023-04-19T10:11:19.348Z,15.56
2023-04-19T10:13:47.412Z,15.56
2023-04-19T10:16:19.472Z,15.74
2023-04-19T10:18:50.469Z,15.80
2023-04-19T10:21:18.308Z,15.63
2023-04-19T10:23:45.091Z,15.43
2023-04-19T10:26:11.785Z,15.50
2023-04-19T10:28:38.536Z,15.09
2023-04-19T10:31:05.557Z,15.06
2023-04-19T10:33:36.288Z,15.32
2023-04-19T10:36:04.065Z,15.65
2023-04-19T10:38:45.946Z,15.79
2023-04-19T10:41:17.015Z,15.88
2023-04-19T10:44:08.744Z,15.96
2023-04-19T10:46:36.379Z,15.81
2023-04-19T10:49:04.836Z,15.46
2023-04-19T10:51:36.696Z,15.53
2023-04-19T10:54:09.822Z,15.27
2023-04-19T10:56:36.545Z,15.00
2023-04-19T10:59:05.454Z,15.17
2023-04-19T11:01:43.497Z,14.90
2023-04-19T11:04:18.629Z,14.92
2023-04-19T11:06:51.733Z,14.64
2023-04-19T11:09:39.112Z,14.45
2023-04-19T11:12:10.927Z,14.37
2023-04-19T11:14:40.698Z,14.13
2023-04-19T11:17:25.792Z,14.07
2023-04-19T11:20:08.701Z,13.81
2023-04-19T11:22:46.167Z,13.62
2023-04-19T11:25:19.245Z,13.46
2023-04-19T11:27:48.070Z,13.46
2023-04-19T11:30:17.362Z,13.43
2023-04-19T11:32:48.729Z,13.36
2023-04-19T11:35:17.456Z,13.21
2023-04-19T11:37:44.129Z,12.79
2023-04-19T11:40:15.364Z,12.70
2023-04-19T11:42:42.107Z,12.69
2023-04-19T11:45:18.622Z,12.70
2023-04-19T11:47:53.238Z,12.68
2023-04-19T11:50:39.199Z,12.66
2023-04-19T11:53:15.173Z,12.66
2023-04-19T11:55:51.536Z,12.54
2023-04-19T11:58:51.580Z,12.46
2023-04-19T12:01:19.949Z,12.36
2023-04-19T12:03:53.571Z,12.29
2023-04-19T12:06:23.415Z,12.20
2023-04-19T12:08:52.303Z,12.13
2023-04-19T12:11:23.104Z,12.00
2023-04-19T12:14:19.416Z,11.97
2023-04-19T12:16:46.634Z,11.98
2023-04-19T12:19:20.762Z,12.04
2023-04-19T12:21:47.882Z,12.05
2023-04-19T12:24:17.780Z,12.15
2023-04-19T12:26:57.948Z,11.98
2023-04-19T12:29:26.745Z,11.99
2023-04-19T12:31:53.542Z,12.07
2023-04-19T12:34:20.418Z,12.07
2023-04-19T12:36:47.480Z,12.14
2023-04-19T12:39:14.410Z,12.23
2023-04-19T12:41:43.948Z,12.08
2023-04-19T12:44:10.740Z,12.11
2023-04-19T12:46:37.571Z,12.09
2023-04-19T12:49:04.371Z,12.22
2023-04-19T12:51:31.947Z,12.30
2023-04-19T12:53:58.758Z,12.13
2023-04-19T12:56:25.587Z,12.26
2023-04-19T12:58:53.145Z,12.36
2023-04-19T13:01:19.885Z,12.43
2023-04-19T13:03:46.793Z,12.50
2023-04-19T13:06:15.604Z,12.58
2023-04-19T13:08:46.496Z,12.47
2023-04-19T13:11:14.539Z,12.44
2023-04-19T13:13:41.592Z,12.54
2023-04-19T13:16:08.424Z,12.59
2023-04-19T13:18:35.499Z,12.60
2023-04-19T13:21:02.206Z,12.68
2023-04-19T13:23:30.157Z,12.77
2023-04-19T13:25:56.887Z,12.72
2023-04-19T13:28:23.574Z,12.81
2023-04-19T13:30:50.327Z,12.85
2023-04-19T13:33:17.132Z,12.81
2023-04-19T13:35:45.200Z,12.78
2023-04-19T13:38:12.260Z,12.82
2023-04-19T13:40:39.025Z,12.87
2023-04-19T13:43:05.706Z,12.95
2023-04-19T13:45:32.447Z,13.09
2023-04-19T13:47:59.261Z,13.19
2023-04-19T13:50:26.092Z,13.35
2023-04-19T13:52:52.820Z,13.50
2023-04-19T13:55:19.571Z,13.67
2023-04-19T13:57:46.437Z,13.86
2023-04-19T14:00:13.685Z,13.94
2023-04-19T14:02:40.568Z,14.04
2023-04-19T14:05:07.786Z,14.22
2023-04-19T14:07:34.519Z,14.39
2023-04-19T14:10:01.213Z,14.59
2023-04-19T14:12:27.934Z,14.74
2023-04-19T14:14:54.643Z,14.82
2023-04-19T14:17:21.713Z,15.01
2023-04-19T14:19:48.435Z,15.13
2023-04-19T14:22:16.482Z,15.26
2023-04-19T14:24:43.238Z,15.22
2023-04-19T14:27:11.511Z,15.25
2023-04-19T14:29:38.896Z,15.20
2023-04-19T14:32:21.463Z,14.82
2023-04-19T14:34:51.631Z,14.80
2023-04-19T14:37:19.223Z,14.82
2023-04-19T14:39:46.680Z,14.76
2023-04-19T14:42:13.792Z,14.66
2023-04-19T14:44:40.953Z,14.61
2023-04-19T14:47:07.814Z,14.55
2023-04-19T14:49:34.526Z,14.52
2023-04-19T14:52:01.203Z,14.41
2023-04-19T14:54:28.110Z,14.33
2023-04-19T14:56:54.804Z,14.24
2023-04-19T14:59:21.764Z,14.01
2023-04-19T15:01:48.880Z,13.98
2023-04-19T15:04:16.768Z,14.00
2023-04-19T15:06:43.656Z,14.11
2023-04-19T15:09:10.599Z,14.19
2023-04-19T15:11:37.369Z,14.32
2023-04-19T15:14:04.184Z,14.40
2023-04-19T15:16:31.478Z,14.33
2023-04-19T15:18:58.296Z,14.35
2023-04-19T15:21:25.098Z,14.24
2023-04-19T15:23:51.819Z,14.28
2023-04-19T15:26:18.532Z,14.23
2023-04-19T15:28:45.899Z,14.25
2023-04-19T15:31:12.852Z,14.24
2023-04-19T15:33:39.635Z,14.33
2023-04-19T15:36:06.544Z,14.37
2023-04-19T15:38:33.627Z,14.34
2023-04-19T15:41:03.606Z,14.37
2023-04-19T15:43:30.383Z,14.31
2023-04-19T15:45:57.119Z,14.37
2023-04-19T15:48:23.895Z,14.29
2023-04-19T15:50:50.915Z,14.31
2023-04-19T15:53:17.681Z,14.27
2023-04-19T15:55:46.740Z,14.14
2023-04-19T15:58:13.621Z,13.88
2023-04-19T16:00:40.424Z,14.01
2023-04-19T16:03:09.043Z,14.19
2023-04-19T16:05:35.903Z,14.31
2023-04-19T16:08:04.656Z,14.48
2023-04-19T16:10:31.648Z,14.66
2023-04-19T16:12:58.476Z,14.42
2023-04-19T16:15:25.239Z,14.43
2023-04-19T16:17:52.709Z,14.48
2023-04-19T16:20:20.696Z,14.47
2023-04-19T16:22:47.995Z,14.49
2023-04-19T16:25:15.798Z,14.49
2023-04-19T16:27:44.088Z,14.42
2023-04-19T16:30:14.417Z,14.14
2023-04-19T16:32:41.699Z,14.12
2023-04-19T16:35:08.841Z,14.05
2023-04-19T16:37:36.058Z,13.91
2023-04-19T16:40:08.356Z,13.89
2023-04-19T16:42:36.874Z,13.70
2023-04-19T16:45:06.509Z,13.68
2023-04-19T16:47:33.641Z,13.57
2023-04-19T16:50:01.120Z,13.67
2023-04-19T16:52:29.244Z,13.61
2023-04-19T16:54:56.115Z,13.51
2023-04-19T16:57:23.630Z,13.52
2023-04-19T16:59:50.698Z,13.49
2023-04-19T17:02:17.833Z,13.22
2023-04-19T17:04:44.848Z,13.25
2023-04-19T17:07:12.344Z,13.11
2023-04-19T17:09:39.195Z,12.86
2023-04-19T17:12:06.460Z,12.68
2023-04-19T17:14:35.116Z,12.49
2023-04-19T17:17:01.918Z,12.52
2023-04-19T17:19:28.716Z,12.40
2023-04-19T17:21:55.740Z,12.32
2023-04-19T17:24:22.627Z,12.40
2023-04-19T17:26:50.192Z,12.19
2023-04-19T17:29:17.228Z,12.19
2023-04-19T17:31:44.261Z,12.21
2023-04-19T17:34:11.573Z,12.15
2023-04-19T17:36:38.310Z,12.17
2023-04-19T17:39:06.814Z,12.07
2023-04-19T17:41:34.068Z,12.02
2023-04-19T17:44:00.929Z,11.88
2023-04-19T17:46:27.707Z,11.90
2023-04-19T17:48:55.697Z,11.88
2023-04-19T17:51:22.637Z,11.90
2023-04-19T17:53:49.332Z,11.88
2023-04-19T17:56:16.116Z,11.93
2023-04-19T17:58:42.818Z,11.82
2023-04-19T18:01:10.578Z,11.96
2023-04-19T18:03:37.513Z,11.96
2023-04-19T18:06:04.355Z,11.93
2023-04-19T18:08:31.206Z,11.88
2023-04-19T18:10:57.864Z,11.82
2023-04-19T18:13:24.581Z,11.81
2023-04-19T18:15:51.383Z,11.78
2023-04-19T18:18:18.169Z,11.67
2023-04-19T18:20:44.910Z,11.61
2023-04-19T18:23:11.669Z,11.54
2023-04-19T18:25:38.533Z,11.42
2023-04-19T18:28:05.433Z,11.33
2023-04-19T18:30:32.183Z,11.09
2023-04-19T18:32:59.463Z,11.06
2023-04-19T18:35:26.294Z,10.98
2023-04-19T18:37:53.081Z,10.82
2023-04-19T18:40:19.915Z,10.93
2023-04-19T18:42:46.707Z,10.91
2023-04-19T18:45:13.642Z,10.83
2023-04-19T18:47:40.472Z,10.89
2023-04-19T18:50:08.858Z,10.77
2023-04-19T18:52:38.498Z,10.74
2023-04-19T18:55:06.621Z,10.73
2023-04-19T18:57:34.847Z,10.62
2023-04-19T19:00:02.627Z,10.55
2023-04-19T19:02:29.507Z,10.54
2023-04-19T19:05:01.071Z,10.47
2023-04-19T19:10:09.664Z,10.29
2023-04-19T19:12:43.488Z,10.25
2023-04-19T19:15:10.975Z,10.20
2023-04-19T19:17:38.067Z,10.15
2023-04-19T19:20:06.937Z,10.10
2023-04-19T19:22:34.229Z,10.03
2023-04-19T19:25:01.422Z,9.96
2023-04-19T19:27:28.308Z,9.85
2023-04-19T19:29:55.293Z,9.87
2023-04-19T19:32:22.265Z,9.85
2023-04-19T19:37:19.744Z,9.74
2023-04-19T19:39:46.767Z,9.66
2023-04-19T19:42:16.647Z,9.65
2023-04-19T19:44:43.733Z,9.66
2023-04-19T19:47:11.404Z,9.60
2023-04-19T19:52:07.898Z,9.58
2023-04-19T19:54:34.633Z,9.54
2023-04-19T19:59:34.998Z,9.54
2023-04-19T20:02:02.611Z,9.48
2023-04-19T20:04:29.747Z,9.47
2023-04-19T20:07:28.506Z,9.45
2023-04-19T20:09:43.676Z,9.40
2023-04-19T20:12:12.811Z,9.37
2023-04-19T20:14:39.564Z,9.35
2023-04-19T20:17:06.636Z,9.33
2023-04-19T20:19:33.438Z,9.30
2023-04-19T20:22:00.764Z,9.23
2023-04-19T20:24:27.734Z,9.24
2023-04-19T20:26:54.478Z,9.22
2023-04-19T20:29:21.811Z,9.22
2023-04-19T20:31:48.533Z,9.17
2023-04-19T20:34:15.324Z,9.13
2023-04-19T20:36:42.847Z,9.11
2023-04-19T20:39:13.159Z,9.05
2023-04-19T20:41:39.949Z,9.00
2023-04-19T20:44:06.838Z,8.98
2023-04-19T20:46:34.990Z,8.92
2023-04-19T20:49:01.747Z,8.88
2023-04-19T20:51:28.449Z,8.82
2023-04-19T20:53:55.237Z,8.75
2023-04-19T20:56:21.965Z,8.66
2023-04-19T20:58:48.994Z,8.64
2023-04-19T21:01:17.657Z,8.61
2023-04-19T21:03:45.184Z,8.57
2023-04-19T21:06:12.302Z,8.53
2023-04-19T21:08:38.991Z,8.50
2023-04-19T21:11:05.738Z,8.47
2023-04-19T21:13:33.138Z,8.42
2023-04-19T21:16:00.272Z,8.42
2023-04-19T21:18:30.058Z,8.38
2023-04-19T21:20:57.647Z,8.46
2023-04-19T21:23:24.693Z,8.42
2023-04-19T21:25:51.470Z,8.42
2023-04-19T21:28:18.208Z,8.42
2023-04-19T21:30:45.571Z,8.42
2023-04-19T21:33:12.974Z,8.36
2023-04-19T21:35:39.661Z,8.33
2023-04-19T21:38:06.908Z,8.34
2023-04-19T21:40:33.609Z,8.36
2023-04-19T21:43:00.880Z,8.35
2023-04-19T21:45:27.663Z,8.33
2023-04-19T21:47:54.363Z,8.29
2023-04-19T21:50:21.112Z,8.28
2023-04-19T21:52:47.811Z,8.24
2023-04-19T21:55:14.510Z,8.17
2023-04-19T21:57:41.223Z,8.10
2023-04-19T22:00:09.863Z,8.08
2023-04-19T22:02:36.755Z,8.05
2023-04-19T22:05:03.606Z,8.02
2023-04-19T22:07:33.451Z,8.03
2023-04-19T22:10:03.066Z,8.05
2023-04-19T22:12:29.777Z,8.06
2023-04-19T22:14:56.845Z,8.02
2023-04-19T22:17:23.608Z,8.00
2023-04-19T22:19:51.683Z,7.99
2023-04-19T22:22:18.349Z,7.98
2023-04-19T22:24:56.925Z,7.91
2023-04-19T22:27:24.978Z,7.85
2023-04-19T22:29:51.970Z,7.91
2023-04-19T22:32:18.797Z,7.89
2023-04-19T22:34:45.779Z,7.79
2023-04-19T22:37:12.478Z,7.76
2023-04-19T22:39:39.237Z,7.78
2023-04-19T22:42:06.306Z,7.80
2023-04-19T22:44:33.117Z,7.81
2023-04-19T22:47:00.135Z,7.78
2023-04-19T22:49:26.904Z,7.75
2023-04-19T22:51:55.048Z,7.74
2023-04-19T22:54:21.889Z,7.72
2023-04-19T22:56:48.559Z,7.70
2023-04-19T22:59:15.404Z,7.73
2023-04-19T23:01:42.445Z,7.70
2023-04-19T23:04:13.461Z,7.59
2023-04-19T23:06:41.495Z,7.53
2023-04-19T23:09:11.113Z,7.38
2023-04-19T23:11:37.867Z,7.35
2023-04-19T23:14:04.900Z,7.35
2023-04-19T23:16:33.508Z,7.34
2023-04-19T23:19:01.289Z,7.24
2023-04-19T23:21:30.132Z,7.27
2023-04-19T23:23:56.857Z,7.19
2023-04-19T23:26:23.579Z,7.10
2023-04-19T23:28:50.274Z,7.12
2023-04-19T23:31:16.959Z,7.13
2023-04-19T23:33:43.703Z,7.11
2023-04-19T23:36:10.431Z,7.03
2023-04-19T23:38:37.137Z,6.99
2023-04-19T23:41:03.852Z,6.98
2023-04-19T23:43:30.796Z,7.03
2023-04-19T23:45:57.515Z,7.09
2023-04-19T23:48:24.258Z,7.09
2023-04-19T23:50:51.095Z,7.06
2023-04-19T23:53:17.807Z,7.08
2023-04-19T23:55:44.508Z,7.06
2023-04-19T23:58:11.225Z,7.06
